Terminal Aerodrome Forecast
Issued by NWS

Home | Current Version | Previous Version | Text Only | Print | Product List | Glossary On
Versions: 1 2 3 4 5 6 7 8 9 10 11 12
000
FTUS45 KABQ 191700
TAFFMN
TAF
KFMN 191735Z 1918/2018 24010KT P6SM SCT080
     FM192200 24010G20KT P6SM VCSH OVC050
     FM200100 30010G20KT P6SM OVC050
     FM200300 30005KT P6SM BKN050
     FM201700 27010G20KT P6SM SKC=

USA.gov is the U.S. government's official web portal to all federal, state and local government web resources and services.